Time;durP1;ratioP1;P1;durP2;ratioP2;P2;SDS_P1;SDS_P2;PMS_P1;PMS_P2;Temp;Humidity;BMP_temperature;BMP_pressure;BME280_temperature;BME280_humidity;BME280_pressure;Samples;Min_cycle;Max_cycle;Signal;HPM_P1;HPM_P2
2022/09/20 00:01:48;;;;;;;1.93;1.00;;;10.20;99.90;;;;;;5023272;28;20512;-59
2022/09/20 00:04:15;;;;;;;3.13;1.00;;;10.20;99.90;;;;;;5021717;28;20469;-59
2022/09/20 00:06:42;;;;;;;1.90;0.80;;;10.20;99.90;;;;;;5026379;28;20917;-60
2022/09/20 00:09:09;;;;;;;3.47;1.10;;;10.10;99.90;;;;;;5021112;28;20496;-59
2022/09/20 00:11:38;;;;;;;2.20;0.97;;;10.10;99.90;;;;;;5021334;28;20608;-59
2022/09/20 00:14:08;;;;;;;2.03;1.17;;;10.10;99.90;;;;;;5021042;28;20950;-59
2022/09/20 00:16:40;;;;;;;1.40;0.90;;;10.10;99.90;;;;;;5020889;28;20479;-59
2022/09/20 00:19:09;;;;;;;2.50;1.10;;;10.10;99.90;;;;;;5021141;28;20829;-59
2022/09/20 00:21:36;;;;;;;2.10;1.10;;;10.10;99.90;;;;;;5022307;28;20862;-56
2022/09/20 00:24:04;;;;;;;3.30;1.13;;;10.10;99.90;;;;;;5022622;28;20444;-60
2022/09/20 00:26:31;;;;;;;1.90;1.23;;;10.00;99.90;;;;;;5020843;28;20488;-60
2022/09/20 00:28:59;;;;;;;1.97;0.93;;;10.00;99.90;;;;;;5020705;28;20485;-61
2022/09/20 00:31:26;;;;;;;6.70;1.30;;;10.00;99.90;;;;;;5021307;28;20513;-61
2022/09/20 00:36:40;;;;;;;1.50;1.10;;;10.10;99.90;;;;;;5020520;28;20957;-60
2022/09/20 00:39:07;;;;;;;2.17;1.13;;;10.00;99.90;;;;;;5020551;28;20540;-60
2022/09/20 00:41:34;;;;;;;1.13;1.00;;;10.00;99.90;;;;;;5020395;28;20528;-59
2022/09/20 00:44:02;;;;;;;3.47;1.40;;;10.00;99.90;;;;;;5020953;28;20561;-55
2022/09/20 00:46:36;;;;;;;2.77;1.23;;;10.00;99.90;;;;;;5020264;28;20541;-56
2022/09/20 00:49:07;;;;;;;2.57;1.50;;;10.00;99.90;;;;;;5021015;28;20560;-61
2022/09/20 00:51:39;;;;;;;2.00;1.00;;;10.00;99.90;;;;;;5023434;28;20538;-58
2022/09/20 00:54:10;;;;;;;1.67;1.20;;;10.00;99.90;;;;;;5024917;28;20449;-61
2022/09/20 00:56:42;;;;;;;2.73;1.13;;;10.00;99.90;;;;;;5020638;28;20433;-58
2022/09/20 00:59:14;;;;;;;1.50;1.00;;;10.00;99.90;;;;;;5020047;28;20480;-60
2022/09/20 01:01:45;;;;;;;2.97;1.00;;;10.00;99.90;;;;;;5020087;28;20883;-58
2022/09/20 01:04:14;;;;;;;1.63;1.30;;;10.00;99.90;;;;;;5019911;28;20475;-61
2022/09/20 01:06:44;;;;;;;1.40;1.03;;;10.00;99.90;;;;;;5020041;28;20473;-58
2022/09/20 01:09:13;;;;;;;2.70;1.40;;;10.00;99.90;;;;;;5020078;28;20476;-56
2022/09/20 01:11:41;;;;;;;1.63;1.10;;;9.90;99.90;;;;;;5020138;28;20479;-60
2022/09/20 01:14:08;;;;;;;3.00;1.27;;;9.90;99.90;;;;;;5019060;28;20488;-59
2022/09/20 01:16:35;;;;;;;2.20;1.10;;;9.90;99.90;;;;;;5019863;28;20775;-59
2022/09/20 01:19:08;;;;;;;1.60;1.17;;;10.00;99.90;;;;;;5020120;28;20455;-59
2022/09/20 01:21:35;;;;;;;1.60;1.07;;;10.00;99.90;;;;;;5023490;28;20433;-61
2022/09/20 01:24:09;;;;;;;1.47;1.00;;;10.00;99.90;;;;;;5020066;28;20459;-60
2022/09/20 01:27:09;;;;;;;2.13;1.40;;;10.00;99.90;;;;;;5021834;28;20421;-58
2022/09/20 01:30:01;;;;;;;1.83;1.50;;;9.90;99.90;;;;;;5019212;28;20502;-58
2022/09/20 01:32:37;;;;;;;1.20;1.10;;;10.00;99.90;;;;;;5019958;28;20429;-58
2022/09/20 01:35:05;;;;;;;2.17;1.17;;;9.90;99.90;;;;;;5019732;28;20472;-55
2022/09/20 01:37:42;;;;;;;1.67;1.10;;;10.00;99.90;;;;;;5019314;28;20455;-59
2022/09/20 01:40:17;;;;;;;1.67;1.13;;;9.90;99.90;;;;;;5019411;28;20433;-59
2022/09/20 01:42:50;;;;;;;2.37;1.40;;;9.90;99.90;;;;;;5019021;28;20455;-57
2022/09/20 01:45:25;;;;;;;2.73;1.10;;;9.90;99.90;;;;;;5019478;28;20460;-58
2022/09/20 01:48:04;;;;;;;2.03;1.50;;;9.90;99.90;;;;;;5018600;28;20480;-57
2022/09/20 01:50:37;;;;;;;3.83;1.53;;;9.90;99.90;;;;;;5019069;28;20468;-60
2022/09/20 01:53:48;;;;;;;1.43;0.90;;;9.90;99.90;;;;;;5023108;28;20469;-59
2022/09/20 01:56:45;;;;;;;2.77;1.27;;;9.80;99.90;;;;;;5019362;28;20441;-60
2022/09/20 01:59:38;;;;;;;4.63;1.10;;;9.80;99.90;;;;;;5020359;28;20576;-57
2022/09/20 02:02:41;;;;;;;1.23;0.87;;;9.80;99.90;;;;;;5022131;28;20438;-53
2022/09/20 02:05:32;;;;;;;5.03;0.90;;;9.70;99.90;;;;;;5021538;28;20476;-56
2022/09/20 02:08:31;;;;;;;2.13;1.00;;;9.70;99.90;;;;;;5022068;28;20454;-56
2022/09/20 02:11:06;;;;;;;1.27;0.90;;;9.60;99.90;;;;;;5017968;28;20489;-56
2022/09/20 02:13:57;;;;;;;4.53;1.03;;;9.60;99.90;;;;;;5020817;28;20429;-56
2022/09/20 02:16:45;;;;;;;2.67;0.80;;;9.60;99.90;;;;;;5021288;28;20879;-56
2022/09/20 02:19:46;;;;;;;1.20;0.93;;;9.60;99.90;;;;;;5021252;28;20421;-55
2022/09/20 02:22:42;;;;;;;4.33;1.10;;;9.60;99.90;;;;;;5020932;28;20433;-52
2022/09/20 02:25:23;;;;;;;2.30;1.37;;;9.60;99.90;;;;;;5021700;28;20426;-57
2022/09/20 02:28:03;;;;;;;8.93;0.83;;;9.60;99.90;;;;;;5021361;28;20437;-53
2022/09/20 02:30:47;;;;;;;1.30;0.97;;;9.60;99.90;;;;;;5020352;28;20485;-51
2022/09/20 02:33:31;;;;;;;1.20;0.80;;;9.60;99.90;;;;;;5021246;28;20759;-56
2022/09/20 02:36:13;;;;;;;3.13;0.80;;;9.60;99.90;;;;;;5020935;28;20495;-54
2022/09/20 02:38:48;;;;;;;4.60;1.27;;;9.60;99.90;;;;;;5021183;28;20907;-53
2022/09/20 02:41:56;;;;;;;1.83;1.20;;;9.70;99.90;;;;;;5020372;28;20515;-57
2022/09/20 02:44:43;;;;;;;2.00;1.20;;;9.70;99.90;;;;;;4999721;28;20533;-55
2022/09/20 02:47:19;;;;;;;1.93;1.17;;;9.80;99.90;;;;;;5020885;28;20453;-56
2022/09/20 02:50:03;;;;;;;1.37;0.80;;;9.70;99.90;;;;;;5021161;28;20473;-56
2022/09/20 02:52:37;;;;;;;1.40;0.80;;;9.70;99.90;;;;;;5020695;28;20433;-58
2022/09/20 02:55:11;;;;;;;3.70;1.17;;;9.80;99.90;;;;;;5020973;28;20436;-52
2022/09/20 02:57:48;;;;;;;2.17;1.00;;;9.80;99.90;;;;;;5020973;28;20734;-53
2022/09/20 03:00:24;;;;;;;1.87;0.97;;;9.90;99.90;;;;;;5020813;28;20940;-51
2022/09/20 03:03:04;;;;;;;6.73;1.13;;;9.90;99.90;;;;;;5020884;28;20440;-55
2022/09/20 03:05:47;;;;;;;2.17;1.00;;;9.90;99.90;;;;;;5020491;28;20473;-55
2022/09/20 03:08:37;;;;;;;1.30;1.00;;;9.90;99.90;;;;;;5020080;28;20472;-54
2022/09/20 03:11:13;;;;;;;1.03;0.87;;;9.90;99.90;;;;;;5019986;28;20498;-56
2022/09/20 03:13:54;;;;;;;1.43;1.13;;;9.90;99.90;;;;;;5019919;28;20440;-54
2022/09/20 03:16:31;;;;;;;3.93;1.10;;;9.90;99.90;;;;;;5020719;28;20437;-55
2022/09/20 03:19:11;;;;;;;1.30;1.00;;;9.90;99.90;;;;;;5020094;28;20492;-56
2022/09/20 03:21:51;;;;;;;2.10;1.17;;;9.90;99.90;;;;;;5020561;28;20425;-56
2022/09/20 03:24:28;;;;;;;1.47;0.90;;;9.80;99.90;;;;;;5019980;28;20472;-56
2022/09/20 03:27:02;;;;;;;1.30;1.00;;;9.80;99.90;;;;;;5019679;28;20425;-54
2022/09/20 03:29:46;;;;;;;1.30;0.90;;;9.90;99.90;;;;;;5020127;28;20452;-54
2022/09/20 03:32:29;;;;;;;2.20;1.20;;;9.90;99.90;;;;;;5020137;28;20432;-57
2022/09/20 03:35:06;;;;;;;2.73;1.20;;;9.90;99.90;;;;;;5019424;28;20456;-53
2022/09/20 03:37:56;;;;;;;1.80;1.00;;;9.90;99.90;;;;;;5019494;28;20785;-56
2022/09/20 03:40:52;;;;;;;2.50;0.90;;;9.90;99.90;;;;;;5019456;28;20455;-57
2022/09/20 03:43:29;;;;;;;4.00;1.10;;;9.90;99.90;;;;;;5019369;28;20477;-56
2022/09/20 03:46:06;;;;;;;1.27;0.90;;;9.90;99.90;;;;;;5019534;28;20429;-52
2022/09/20 03:49:07;;;;;;;1.30;1.03;;;10.00;99.90;;;;;;5019398;28;20488;-56
2022/09/20 03:51:45;;;;;;;1.47;0.73;;;10.10;99.90;;;;;;4986267;28;20484;-54
2022/09/20 03:54:40;;;;;;;7.67;1.03;;;10.10;99.90;;;;;;5019146;28;20495;-55
2022/09/20 03:57:23;;;;;;;2.30;1.03;;;10.10;99.90;;;;;;5019845;28;20552;-57
2022/09/20 04:00:08;;;;;;;1.50;0.83;;;10.10;99.90;;;;;;5019318;28;20436;-54
2022/09/20 04:02:50;;;;;;;1.17;1.00;;;10.20;99.90;;;;;;5018774;28;20503;-53
2022/09/20 04:05:22;;;;;;;2.13;1.20;;;10.20;99.90;;;;;;5019310;28;20826;-57
2022/09/20 04:07:57;;;;;;;2.37;0.97;;;10.20;99.90;;;;;;5019498;28;20436;-58
2022/09/20 04:10:31;;;;;;;2.00;1.40;;;10.30;99.90;;;;;;5019266;28;20967;-55
2022/09/20 04:13:27;;;;;;;2.03;1.50;;;10.30;99.90;;;;;;5019288;28;20483;-55
2022/09/20 04:16:05;;;;;;;1.50;1.10;;;10.30;99.90;;;;;;5019004;28;20448;-57
2022/09/20 04:18:36;;;;;;;1.70;0.97;;;10.30;99.90;;;;;;5019173;28;20468;-60
2022/09/20 04:21:11;;;;;;;1.77;1.40;;;10.30;99.90;;;;;;5019416;28;20854;-56
2022/09/20 04:23:47;;;;;;;1.60;1.20;;;10.30;99.90;;;;;;5019142;28;20435;-56
2022/09/20 04:26:20;;;;;;;1.10;0.90;;;10.30;99.90;;;;;;5019314;28;20435;-56
2022/09/20 04:28:53;;;;;;;1.20;0.93;;;10.40;99.90;;;;;;5019141;28;20454;-56
2022/09/20 04:31:31;;;;;;;1.13;1.00;;;10.40;99.90;;;;;;5019561;28;20579;-58
2022/09/20 04:34:01;;;;;;;1.57;1.17;;;10.40;99.90;;;;;;5019116;28;20430;-56
2022/09/20 04:36:52;;;;;;;3.90;1.50;;;10.40;99.90;;;;;;5019096;28;20453;-56
2022/09/20 04:39:32;;;;;;;2.77;1.57;;;10.30;99.90;;;;;;5019432;28;20449;-55
2022/09/20 04:42:38;;;;;;;3.87;1.40;;;10.30;99.90;;;;;;5019202;28;20500;-56
2022/09/20 04:45:31;;;;;;;4.10;1.27;;;10.30;99.90;;;;;;5019022;28;20464;-53
2022/09/20 04:48:34;;;;;;;1.93;1.20;;;10.30;99.90;;;;;;5019510;28;20536;-57
2022/09/20 04:51:50;;;;;;;2.07;1.20;;;10.30;99.90;;;;;;5022939;28;20488;-54
2022/09/20 04:54:45;;;;;;;2.87;1.20;;;10.20;99.90;;;;;;5022491;28;20441;-56
2022/09/20 04:57:41;;;;;;;2.07;1.60;;;10.20;99.90;;;;;;5022170;28;20445;-54
2022/09/20 05:00:11;;;;;;;3.03;1.37;;;10.10;99.90;;;;;;5022442;28;20425;-56
2022/09/20 05:03:01;;;;;;;1.63;1.10;;;10.10;99.90;;;;;;5022853;28;20448;-56
2022/09/20 05:06:14;;;;;;;1.83;1.47;;;10.10;99.90;;;;;;5022330;28;20433;-57
2022/09/20 05:09:12;;;;;;;1.73;1.30;;;10.10;99.90;;;;;;5022852;28;20469;-57
2022/09/20 05:12:01;;;;;;;2.50;1.27;;;10.10;99.90;;;;;;5023034;28;20504;-57
2022/09/20 05:14:49;;;;;;;2.80;1.40;;;10.20;99.90;;;;;;5022527;28;20488;-55
2022/09/20 05:17:26;;;;;;;2.47;1.40;;;10.20;99.90;;;;;;5022474;28;20429;-57
2022/09/20 05:20:23;;;;;;;1.50;1.03;;;10.20;99.90;;;;;;5022660;28;20776;-56
2022/09/20 05:23:27;;;;;;;1.77;1.00;;;10.20;99.90;;;;;;5021847;28;20453;-54
2022/09/20 05:26:09;;;;;;;1.63;1.30;;;10.30;99.90;;;;;;5021922;28;20491;-56
2022/09/20 05:28:49;;;;;;;1.30;0.90;;;10.40;99.90;;;;;;5022412;28;20429;-54
2022/09/20 05:31:25;;;;;;;2.20;1.33;;;10.40;99.90;;;;;;5022005;28;20468;-57
2022/09/20 05:33:57;;;;;;;2.13;1.10;;;10.50;99.90;;;;;;5021796;28;20425;-54
2022/09/20 05:36:36;;;;;;;1.40;1.20;;;10.50;99.90;;;;;;5021823;28;20453;-57
2022/09/20 05:39:16;;;;;;;1.40;1.17;;;10.50;99.90;;;;;;5021674;28;20481;-56
2022/09/20 05:41:47;;;;;;;1.47;1.03;;;10.60;99.90;;;;;;5021487;28;20429;-58
2022/09/20 05:44:29;;;;;;;1.93;1.60;;;10.60;99.90;;;;;;5021751;28;20469;-56
2022/09/20 05:47:03;;;;;;;2.27;1.50;;;10.70;99.90;;;;;;5021206;28;20461;-56
2022/09/20 05:49:41;;;;;;;2.00;1.30;;;10.70;99.90;;;;;;5020639;28;20447;-51
2022/09/20 05:52:26;;;;;;;2.73;1.67;;;10.70;99.90;;;;;;5021247;28;20808;-54
2022/09/20 05:55:15;;;;;;;8.90;1.60;;;10.80;99.90;;;;;;5021745;28;20455;-54
2022/09/20 05:58:00;;;;;;;3.90;1.20;;;10.80;99.90;;;;;;5021631;28;20757;-54
2022/09/20 06:00:34;;;;;;;1.73;1.20;;;10.90;99.90;;;;;;5020751;28;20487;-53
2022/09/20 06:03:09;;;;;;;4.23;1.03;;;11.00;99.90;;;;;;5020770;28;20505;-54
2022/09/20 06:05:49;;;;;;;1.73;1.30;;;11.00;99.90;;;;;;5020912;28;20433;-54
2022/09/20 06:08:49;;;;;;;3.33;1.10;;;11.00;99.90;;;;;;5020954;28;20472;-55
2022/09/20 06:11:43;;;;;;;2.40;1.40;;;11.00;99.90;;;;;;5020264;28;20480;-48
2022/09/20 06:14:21;;;;;;;3.30;1.30;;;11.10;99.90;;;;;;5020638;28;20477;-55
2022/09/20 06:16:59;;;;;;;2.37;1.13;;;11.20;99.90;;;;;;5020273;28;20425;-55
2022/09/20 06:19:36;;;;;;;1.63;1.30;;;11.30;99.90;;;;;;5021281;28;20751;-57
2022/09/20 06:22:11;;;;;;;2.47;1.30;;;11.40;99.90;;;;;;5030147;28;20883;-57
2022/09/20 06:24:44;;;;;;;2.37;1.20;;;11.40;99.90;;;;;;5020994;28;20440;-55
2022/09/20 06:27:18;;;;;;;3.70;1.70;;;11.40;99.90;;;;;;5020845;28;20568;-56
2022/09/20 06:29:51;;;;;;;2.33;1.40;;;11.50;99.90;;;;;;5024359;28;20918;-53
2022/09/20 06:32:19;;;;;;;1.70;1.13;;;11.70;99.90;;;;;;5019550;28;20500;-55
2022/09/20 06:34:47;;;;;;;2.90;1.43;;;11.70;99.90;;;;;;5025232;28;20853;-51
2022/09/20 06:43:13;;;;;;;2.00;1.00;;;12.10;99.90;;;;;;5037649;28;20557;-56
2022/09/20 06:45:40;;;;;;;2.33;1.40;;;12.20;99.90;;;;;;5021664;28;20441;-58
2022/09/20 06:48:07;;;;;;;2.27;1.40;;;12.30;99.90;;;;;;5037664;28;20445;-58
2022/09/20 06:50:37;;;;;;;3.10;1.30;;;12.30;99.90;;;;;;5038639;28;20547;-54
2022/09/20 06:53:06;;;;;;;1.67;1.40;;;12.40;99.90;;;;;;5028130;28;20449;-55
2022/09/20 06:55:39;;;;;;;1.50;1.00;;;12.50;99.90;;;;;;5044721;28;20478;-58
2022/09/20 06:58:08;;;;;;;1.70;1.20;;;12.50;99.90;;;;;;5049474;28;20434;-57
2022/09/20 07:00:35;;;;;;;7.73;1.43;;;12.50;99.90;;;;;;5046601;28;20452;-55
2022/09/20 07:03:02;;;;;;;2.57;1.07;;;12.50;99.90;;;;;;5031700;28;20472;-54
2022/09/20 07:05:35;;;;;;;3.27;1.13;;;12.50;99.90;;;;;;5047568;28;20448;-56
2022/09/20 07:08:02;;;;;;;5.37;1.70;;;12.60;99.90;;;;;;5047303;28;20815;-56
2022/09/20 07:10:30;;;;;;;2.13;1.40;;;12.60;99.90;;;;;;5030570;28;20544;-54
2022/09/20 07:12:59;;;;;;;1.63;1.40;;;12.60;99.90;;;;;;5032233;28;20500;-53
2022/09/20 07:15:27;;;;;;;3.20;1.30;;;12.50;99.90;;;;;;5028121;28;21532;-55
2022/09/20 07:17:54;;;;;;;2.30;1.30;;;12.50;99.90;;;;;;5023073;28;20488;-57
2022/09/20 07:20:21;;;;;;;1.27;0.93;;;12.30;99.90;;;;;;5022459;28;20910;-52
2022/09/20 07:22:48;;;;;;;1.30;1.13;;;12.20;99.90;;;;;;5023021;28;20536;-56
2022/09/20 07:25:17;;;;;;;1.30;1.00;;;12.10;99.90;;;;;;5022741;28;20472;-54
2022/09/20 07:27:45;;;;;;;3.87;1.40;;;12.10;99.90;;;;;;5023150;28;21057;-57
2022/09/20 07:30:14;;;;;;;3.07;1.60;;;12.00;99.90;;;;;;5023256;28;20567;-55
2022/09/20 07:32:41;;;;;;;2.93;1.13;;;12.00;99.90;;;;;;5023481;28;20465;-57
2022/09/20 07:35:09;;;;;;;2.13;1.23;;;11.90;99.90;;;;;;5023762;28;20931;-54
2022/09/20 07:37:40;;;;;;;3.30;1.70;;;11.80;99.90;;;;;;5023356;28;20508;-53
2022/09/20 07:40:08;;;;;;;1.83;1.30;;;11.70;99.90;;;;;;5023728;28;20449;-54
2022/09/20 07:42:35;;;;;;;2.03;1.30;;;11.70;99.90;;;;;;5023166;28;20856;-56
2022/09/20 07:45:02;;;;;;;2.40;1.40;;;11.70;99.90;;;;;;5023317;28;20449;-53
2022/09/20 07:47:34;;;;;;;3.30;1.43;;;11.70;99.90;;;;;;5023115;28;20502;-56
2022/09/20 07:50:01;;;;;;;4.33;1.60;;;11.80;99.90;;;;;;5023250;28;20477;-56
2022/09/20 07:52:28;;;;;;;2.90;2.23;;;11.90;99.90;;;;;;5023045;28;20491;-56
2022/09/20 07:54:55;;;;;;;5.17;1.70;;;11.90;99.90;;;;;;5022032;28;20487;-54
2022/09/20 07:57:46;;;;;;;3.60;1.73;;;12.10;99.90;;;;;;5023346;28;20457;-55
2022/09/20 08:00:13;;;;;;;1.70;1.13;;;12.10;99.90;;;;;;5022584;28;20512;-57
2022/09/20 08:02:41;;;;;;;5.37;2.60;;;12.20;99.90;;;;;;5021966;28;20839;-57
2022/09/20 08:05:09;;;;;;;3.07;2.40;;;12.30;99.90;;;;;;5021797;28;20436;-54
2022/09/20 08:07:35;;;;;;;2.33;1.50;;;12.40;99.90;;;;;;5022165;28;20449;-54
2022/09/20 08:10:02;;;;;;;6.13;2.20;;;12.40;99.90;;;;;;5022108;28;20471;-53
2022/09/20 08:12:32;;;;;;;2.00;1.57;;;12.60;99.90;;;;;;5021943;28;20771;-56
2022/09/20 08:15:00;;;;;;;2.03;1.53;;;12.70;99.90;;;;;;5022399;28;20445;-53
2022/09/20 08:17:27;;;;;;;2.80;2.10;;;13.00;99.90;;;;;;5020774;28;20520;-56
2022/09/20 08:19:55;;;;;;;2.77;1.40;;;14.20;99.90;;;;;;5018865;28;20452;-52
2022/09/20 08:22:22;;;;;;;4.50;1.50;;;16.00;99.90;;;;;;5019831;28;20473;-55
2022/09/20 08:24:50;;;;;;;2.00;1.17;;;18.00;99.90;;;;;;5022002;28;20457;-57
2022/09/20 08:27:17;;;;;;;1.60;1.30;;;19.60;99.90;;;;;;5021946;28;20511;-56
2022/09/20 08:29:57;;;;;;;2.33;1.27;;;21.20;99.90;;;;;;5020869;28;20517;-56
2022/09/20 08:32:24;;;;;;;1.57;1.30;;;22.60;99.90;;;;;;5020650;28;20809;-56
2022/09/20 08:34:51;;;;;;;1.13;0.90;;;24.20;99.90;;;;;;5020095;28;20477;-57
2022/09/20 08:37:19;;;;;;;2.43;1.10;;;24.60;95.60;;;;;;5020061;28;20544;-57
2022/09/20 08:39:47;;;;;;;4.63;1.33;;;25.10;92.40;;;;;;5020210;28;20585;-56
2022/09/20 08:42:22;;;;;;;2.70;1.17;;;25.80;90.10;;;;;;5019968;28;20497;-57
2022/09/20 08:44:55;;;;;;;1.60;1.23;;;26.40;81.50;;;;;;5020044;28;20492;-56
2022/09/20 08:47:24;;;;;;;2.50;1.23;;;26.30;80.30;;;;;;5019630;28;20499;-56
2022/09/20 08:49:53;;;;;;;2.57;1.90;;;26.50;78.70;;;;;;5019969;28;20515;-57
2022/09/20 08:52:27;;;;;;;3.47;1.43;;;26.80;75.30;;;;;;5019993;28;20488;-57
2022/09/20 08:54:56;;;;;;;1.70;1.30;;;26.70;74.80;;;;;;5020767;28;20437;-58
2022/09/20 08:57:24;;;;;;;2.87;1.17;;;27.00;74.20;;;;;;5020078;28;20610;-56
2022/09/20 08:59:51;;;;;;;2.03;1.43;;;27.00;72.30;;;;;;5019273;28;20456;-58
2022/09/20 09:02:21;;;;;;;2.03;1.10;;;26.60;71.40;;;;;;5019532;28;20465;-55
2022/09/20 09:04:51;;;;;;;1.83;1.20;;;26.30;75.00;;;;;;5019368;28;20504;-53
2022/09/20 09:07:21;;;;;;;1.90;1.43;;;26.40;74.00;;;;;;5019698;28;20481;-56
2022/09/20 09:09:51;;;;;;;1.93;1.30;;;26.30;74.10;;;;;;5019679;28;20910;-56
2022/09/20 09:12:22;;;;;;;3.23;1.23;;;26.40;73.40;;;;;;5019103;28;20489;-55
2022/09/20 09:14:53;;;;;;;2.53;1.63;;;26.20;73.40;;;;;;5019429;28;20440;-57
2022/09/20 09:17:22;;;;;;;1.90;1.40;;;25.90;73.10;;;;;;5019550;28;20755;-56
2022/09/20 09:19:51;;;;;;;2.30;1.13;;;25.50;73.90;;;;;;5019399;28;20926;-53
2022/09/20 09:22:23;;;;;;;4.30;1.47;;;24.90;75.70;;;;;;5019564;28;20445;-57
2022/09/20 09:25:09;;;;;;;4.10;1.50;;;24.30;79.20;;;;;;5019925;28;20524;-56
2022/09/20 09:27:50;;;;;;;8.70;1.50;;;23.20;81.80;;;;;;5021064;28;20463;-55
2022/09/20 09:30:21;;;;;;;2.23;1.83;;;22.10;87.80;;;;;;5020680;28;20531;-56
2022/09/20 09:32:48;;;;;;;2.20;1.37;;;21.40;93.60;;;;;;5019982;28;20476;-56
2022/09/20 09:35:29;;;;;;;2.33;1.33;;;21.20;96.20;;;;;;5019403;28;20477;-58
2022/09/20 09:37:59;;;;;;;1.37;1.20;;;20.80;98.00;;;;;;5020144;28;20437;-58
2022/09/20 09:40:27;;;;;;;2.17;1.20;;;20.50;99.90;;;;;;5019894;28;20477;-61
2022/09/20 09:42:58;;;;;;;4.17;1.17;;;20.80;98.80;;;;;;5020880;28;20433;-55
2022/09/20 09:45:30;;;;;;;3.60;1.50;;;20.90;98.80;;;;;;5020011;28;20429;-57
2022/09/20 09:48:00;;;;;;;2.47;1.30;;;21.40;98.70;;;;;;5019914;28;20472;-57
2022/09/20 09:50:30;;;;;;;3.83;1.37;;;22.20;96.30;;;;;;5020136;28;20495;-56
2022/09/20 09:53:00;;;;;;;5.13;1.33;;;22.70;95.30;;;;;;5019796;28;20481;-57
2022/09/20 09:55:40;;;;;;;2.23;1.47;;;23.00;94.60;;;;;;5019838;28;20545;-54
2022/09/20 09:58:21;;;;;;;1.50;1.30;;;23.00;94.00;;;;;;5019920;28;20534;-51
2022/09/20 10:00:50;;;;;;;2.10;1.33;;;23.50;93.20;;;;;;5019244;28;20486;-57
2022/09/20 10:03:37;;;;;;;6.73;1.80;;;23.40;91.70;;;;;;5019210;28;20861;-51
2022/09/20 10:06:15;;;;;;;2.80;1.77;;;23.00;92.90;;;;;;5019228;28;20444;-53
2022/09/20 10:08:55;;;;;;;3.33;1.70;;;22.70;94.50;;;;;;5018997;28;20512;-59
2022/09/20 10:11:34;;;;;;;3.93;1.87;;;22.70;94.80;;;;;;5017502;28;20900;-60
2022/09/20 10:14:13;;;;;;;2.87;2.23;;;22.50;95.20;;;;;;5017592;28;20898;-61
2022/09/20 10:16:57;;;;;;;1.93;1.37;;;22.00;95.60;;;;;;5017467;28;20429;-59
2022/09/20 10:19:33;;;;;;;4.43;3.50;;;21.70;96.30;;;;;;5017372;28;20472;-58
2022/09/20 10:22:09;;;;;;;2.13;1.87;;;21.60;96.30;;;;;;5017237;28;20452;-59
2022/09/20 10:24:45;;;;;;;3.30;2.00;;;21.20;98.00;;;;;;5017267;28;20511;-57
2022/09/20 10:27:28;;;;;;;5.03;2.17;;;20.70;98.90;;;;;;5017097;28;20885;-61
2022/09/20 10:30:09;;;;;;;3.23;2.13;;;20.50;99.90;;;;;;5020537;28;20774;-61
2022/09/20 10:32:51;;;;;;;2.40;1.67;;;20.20;99.90;;;;;;5017318;28;20523;-60
2022/09/20 10:35:29;;;;;;;2.03;1.80;;;19.50;99.90;;;;;;5017714;28;20437;-58
2022/09/20 10:38:15;;;;;;;4.43;1.83;;;19.00;99.90;;;;;;5018831;28;20500;-59
2022/09/20 10:43:55;;;;;;;2.80;1.87;;;19.70;99.90;;;;;;5017510;28;20500;-59
2022/09/20 10:46:31;;;;;;;3.63;1.93;;;20.20;99.90;;;;;;5017271;28;20460;-60
2022/09/20 10:49:22;;;;;;;2.47;1.60;;;20.20;99.90;;;;;;5017160;28;20748;-61
2022/09/20 10:51:59;;;;;;;2.47;1.63;;;20.30;99.90;;;;;;5017036;28;20984;-59
2022/09/20 10:54:38;;;;;;;2.53;1.80;;;20.40;99.90;;;;;;5017311;28;20559;-56
2022/09/20 10:57:25;;;;;;;2.30;1.80;;;20.00;99.90;;;;;;5017437;28;20513;-56
2022/09/20 10:59:57;;;;;;;3.50;2.10;;;19.00;99.90;;;;;;5017188;28;20425;-60
2022/09/20 11:02:51;;;;;;;2.00;1.90;;;18.30;99.90;;;;;;5017322;28;20443;-57
2022/09/20 11:05:28;;;;;;;5.63;2.10;;;17.80;99.90;;;;;;5016256;28;20889;-55
2022/09/20 11:08:05;;;;;;;2.60;1.93;;;17.10;99.90;;;;;;5017715;28;20429;-57
2022/09/20 11:10:36;;;;;;;2.97;1.73;;;16.70;99.90;;;;;;5021215;28;20469;-59
2022/09/20 11:13:11;;;;;;;1.87;1.50;;;16.30;99.90;;;;;;5018276;28;20475;-59
2022/09/20 11:15:44;;;;;;;3.53;2.07;;;16.00;99.90;;;;;;5018207;28;20472;-59
2022/09/20 11:18:22;;;;;;;2.27;2.07;;;15.70;99.90;;;;;;5018306;28;20835;-62
2022/09/20 11:20:56;;;;;;;4.47;2.37;;;15.40;99.90;;;;;;5017831;28;20895;-56
2022/09/20 11:23:28;;;;;;;2.80;2.60;;;15.30;99.90;;;;;;5018370;28;20426;-60
2022/09/20 11:26:01;;;;;;;4.87;1.77;;;15.10;99.90;;;;;;5018441;28;20839;-60
2022/09/20 11:28:36;;;;;;;4.50;1.90;;;15.00;99.90;;;;;;5018518;28;20458;-58
2022/09/20 11:31:07;;;;;;;0.90;0.60;;;14.60;99.90;;;;;;5018647;28;20429;-60
2022/09/20 11:33:40;;;;;;;1.13;0.70;;;14.00;99.90;;;;;;5018395;28;20468;-59
2022/09/20 11:36:15;;;;;;;1.60;1.00;;;13.60;99.90;;;;;;5018782;28;20441;-59
2022/09/20 11:38:49;;;;;;;1.20;0.80;;;13.30;99.90;;;;;;5021257;28;20432;-62
2022/09/20 11:41:20;;;;;;;1.83;1.27;;;13.20;99.90;;;;;;5019390;28;20449;-61
2022/09/20 11:43:50;;;;;;;1.70;0.90;;;12.90;99.90;;;;;;5018302;28;20469;-57
2022/09/20 11:46:23;;;;;;;5.63;1.00;;;12.80;99.90;;;;;;5018172;28;20452;-56
2022/09/20 11:48:56;;;;;;;3.03;1.00;;;12.70;99.90;;;;;;5018840;28;20469;-58
2022/09/20 11:51:53;;;;;;;1.47;1.10;;;12.70;99.90;;;;;;5018796;28;20425;-57
2022/09/20 11:54:44;;;;;;;1.30;1.00;;;12.70;99.90;;;;;;5018127;28;20457;-59
2022/09/20 11:57:14;;;;;;;6.70;1.00;;;12.60;99.90;;;;;;5017901;28;20432;-60
2022/09/20 11:59:50;;;;;;;1.87;1.10;;;12.70;99.90;;;;;;5018145;28;20473;-61
2022/09/20 12:02:21;;;;;;;1.70;0.80;;;12.80;99.90;;;;;;5018541;28;20491;-58
2022/09/20 12:04:52;;;;;;;1.60;1.20;;;12.90;99.90;;;;;;5018724;28;20472;-59
2022/09/20 12:07:23;;;;;;;1.87;1.10;;;12.90;99.90;;;;;;5020284;28;20522;-57
2022/09/20 12:09:56;;;;;;;1.87;1.20;;;13.00;99.90;;;;;;5019449;28;20449;-59
2022/09/20 12:12:33;;;;;;;1.20;0.90;;;13.10;99.90;;;;;;5018356;28;20476;-58
2022/09/20 12:15:04;;;;;;;3.40;1.20;;;13.20;99.90;;;;;;5018419;28;20433;-60
2022/09/20 12:18:08;;;;;;;3.37;1.30;;;13.30;99.90;;;;;;5018314;28;20433;-56
2022/09/20 12:20:58;;;;;;;3.80;1.80;;;13.50;99.90;;;;;;5017804;28;20934;-59
2022/09/20 12:23:58;;;;;;;2.17;1.47;;;13.70;99.90;;;;;;5018095;28;20452;-58
2022/09/20 12:26:40;;;;;;;6.77;2.03;;;13.90;99.90;;;;;;5018499;28;20447;-61
2022/09/20 12:29:58;;;;;;;3.43;2.20;;;14.00;99.90;;;;;;5017879;28;20425;-60
2022/09/20 12:32:56;;;;;;;5.40;1.97;;;14.10;99.90;;;;;;5018613;28;20488;-62
2022/09/20 12:36:13;;;;;;;6.60;2.50;;;14.20;99.90;;;;;;5019797;28;20472;-61
2022/09/20 12:38:48;;;;;;;6.53;2.20;;;14.40;99.90;;;;;;5018073;28;20477;-60
2022/09/20 12:41:18;;;;;;;4.00;2.37;;;14.60;99.90;;;;;;5017881;28;20429;-56
2022/09/20 12:43:58;;;;;;;3.50;2.27;;;14.60;99.90;;;;;;5020082;28;20484;-59
2022/09/20 12:46:35;;;;;;;4.23;2.47;;;14.80;99.90;;;;;;5019239;28;20459;-59
2022/09/20 12:52:52;;;;;;;3.90;1.83;;;15.10;99.90;;;;;;5017505;28;20744;-55
2022/09/20 12:55:51;;;;;;;1.97;1.80;;;15.30;99.90;;;;;;5017591;28;20453;-59
2022/09/20 12:58:26;;;;;;;2.97;1.70;;;15.40;99.90;;;;;;5017625;28;20878;-60
2022/09/20 13:01:27;;;;;;;2.60;2.07;;;15.30;99.90;;;;;;5017091;28;20561;-61
2022/09/20 13:04:14;;;;;;;2.10;1.80;;;15.40;99.90;;;;;;5017455;28;20475;-59
2022/09/20 13:06:44;;;;;;;4.07;1.60;;;15.50;99.90;;;;;;5016859;28;20469;-61
2022/09/20 13:09:12;;;;;;;1.90;1.17;;;15.50;99.90;;;;;;5018174;28;20463;-57
2022/09/20 13:11:43;;;;;;;1.80;1.07;;;15.40;99.90;;;;;;5022417;28;20493;-61
2022/09/20 13:14:13;;;;;;;1.40;0.90;;;15.20;99.90;;;;;;5023544;28;20476;-59
2022/09/20 13:16:50;;;;;;;1.40;0.80;;;14.90;99.90;;;;;;5021186;28;20465;-59
2022/09/20 13:19:28;;;;;;;2.17;0.80;;;14.70;99.90;;;;;;5021360;28;20765;-58
2022/09/20 13:22:03;;;;;;;1.40;0.90;;;14.50;99.90;;;;;;5021304;28;20429;-61
2022/09/20 13:24:36;;;;;;;1.37;0.93;;;14.30;99.90;;;;;;5021289;28;20485;-60
2022/09/20 13:27:15;;;;;;;1.53;0.87;;;14.00;99.90;;;;;;5021122;28;20439;-59
2022/09/20 13:29:46;;;;;;;1.70;1.00;;;13.70;99.90;;;;;;5020704;28;20417;-59
2022/09/20 13:32:17;;;;;;;0.90;0.60;;;13.50;99.90;;;;;;5020878;28;20825;-60
2022/09/20 13:34:45;;;;;;;1.03;0.90;;;13.30;99.90;;;;;;5020956;28;20485;-61
2022/09/20 13:37:22;;;;;;;1.47;0.80;;;13.20;99.90;;;;;;5020111;28;20527;-58
2022/09/20 13:39:54;;;;;;;1.10;0.80;;;13.20;99.90;;;;;;5022878;28;20477;-61
2022/09/20 13:42:21;;;;;;;2.60;2.40;;;13.10;99.90;;;;;;5022949;28;20445;-60
2022/09/20 13:44:49;;;;;;;1.17;0.80;;;13.10;99.90;;;;;;5020668;28;20473;-58
2022/09/20 13:47:27;;;;;;;1.20;0.80;;;13.20;99.90;;;;;;5020225;28;20465;-58
2022/09/20 13:50:00;;;;;;;1.07;0.80;;;13.40;99.90;;;;;;5020065;28;20453;-59
2022/09/20 13:52:31;;;;;;;1.40;0.90;;;13.70;99.90;;;;;;5020154;28;20453;-62
2022/09/20 13:54:58;;;;;;;1.17;0.83;;;14.00;99.90;;;;;;5021622;28;20437;-58